sensor_id;sensor_type;location;lat;lon;timestamp;P1;durP1;ratioP1;P2;durP2;ratioP2
51006;SDS011;37034;47.886;-3.904;2023-04-25T00:02:03;19.02;;;3.63;;
51006;SDS011;37034;47.886;-3.904;2023-04-25T00:04:29;19.53;;;3.87;;
51006;SDS011;37034;47.886;-3.904;2023-04-25T00:06:55;19.13;;;4.20;;
51006;SDS011;37034;47.886;-3.904;2023-04-25T00:09:21;20.45;;;3.70;;
51006;SDS011;37034;47.886;-3.904;2023-04-25T00:11:47;20.23;;;3.65;;
51006;SDS011;37034;47.886;-3.904;2023-04-25T00:14:13;15.55;;;3.22;;
51006;SDS011;37034;47.886;-3.904;2023-04-25T00:16:39;16.70;;;3.10;;
51006;SDS011;37034;47.886;-3.904;2023-04-25T00:19:06;20.35;;;4.18;;
51006;SDS011;37034;47.886;-3.904;2023-04-25T00:21:32;18.30;;;2.70;;
51006;SDS011;37034;47.886;-3.904;2023-04-25T00:23:58;20.15;;;4.47;;
51006;SDS011;37034;47.886;-3.904;2023-04-25T00:26:24;17.52;;;3.17;;
51006;SDS011;37034;47.886;-3.904;2023-04-25T00:28:50;18.27;;;3.45;;
51006;SDS011;37034;47.886;-3.904;2023-04-25T00:31:16;16.03;;;3.43;;
51006;SDS011;37034;47.886;-3.904;2023-04-25T00:33:42;20.43;;;3.77;;
51006;SDS011;37034;47.886;-3.904;2023-04-25T00:36:08;21.40;;;3.33;;
51006;SDS011;37034;47.886;-3.904;2023-04-25T00:38:34;14.68;;;2.55;;
51006;SDS011;37034;47.886;-3.904;2023-04-25T00:40:59;17.00;;;3.03;;
51006;SDS011;37034;47.886;-3.904;2023-04-25T00:43:25;18.87;;;3.53;;
51006;SDS011;37034;47.886;-3.904;2023-04-25T00:48:18;13.85;;;2.67;;
51006;SDS011;37034;47.886;-3.904;2023-04-25T00:50:52;15.70;;;2.55;;
51006;SDS011;37034;47.886;-3.904;2023-04-25T00:53:20;14.13;;;2.75;;
51006;SDS011;37034;47.886;-3.904;2023-04-25T00:55:46;16.02;;;2.78;;
51006;SDS011;37034;47.886;-3.904;2023-04-25T00:58:12;14.10;;;3.00;;
51006;SDS011;37034;47.886;-3.904;2023-04-25T01:00:38;24.25;;;3.80;;
51006;SDS011;37034;47.886;-3.904;2023-04-25T01:03:05;20.73;;;3.80;;
51006;SDS011;37034;47.886;-3.904;2023-04-25T01:05:31;16.10;;;3.30;;
51006;SDS011;37034;47.886;-3.904;2023-04-25T01:07:57;15.03;;;3.27;;
51006;SDS011;37034;47.886;-3.904;2023-04-25T01:10:23;21.77;;;3.45;;
51006;SDS011;37034;47.886;-3.904;2023-04-25T01:12:49;18.97;;;3.73;;
51006;SDS011;37034;47.886;-3.904;2023-04-25T01:15:15;13.57;;;3.08;;
51006;SDS011;37034;47.886;-3.904;2023-04-25T01:17:41;24.08;;;3.88;;
51006;SDS011;37034;47.886;-3.904;2023-04-25T01:20:09;13.98;;;2.72;;
51006;SDS011;37034;47.886;-3.904;2023-04-25T01:22:36;20.02;;;3.50;;
51006;SDS011;37034;47.886;-3.904;2023-04-25T01:25:01;12.80;;;2.63;;
51006;SDS011;37034;47.886;-3.904;2023-04-25T01:27:28;13.43;;;2.88;;
51006;SDS011;37034;47.886;-3.904;2023-04-25T01:29:54;13.73;;;2.75;;
51006;SDS011;37034;47.886;-3.904;2023-04-25T01:32:21;13.50;;;2.85;;
51006;SDS011;37034;47.886;-3.904;2023-04-25T01:34:48;14.10;;;2.95;;
51006;SDS011;37034;47.886;-3.904;2023-04-25T01:37:14;14.68;;;3.05;;
51006;SDS011;37034;47.886;-3.904;2023-04-25T01:39:41;21.88;;;3.78;;
51006;SDS011;37034;47.886;-3.904;2023-04-25T01:42:07;14.80;;;2.88;;
51006;SDS011;37034;47.886;-3.904;2023-04-25T01:44:33;12.43;;;2.70;;
51006;SDS011;37034;47.886;-3.904;2023-04-25T01:46:58;14.67;;;3.53;;
51006;SDS011;37034;47.886;-3.904;2023-04-25T01:49:24;13.00;;;2.40;;
51006;SDS011;37034;47.886;-3.904;2023-04-25T01:51:50;11.07;;;2.73;;
51006;SDS011;37034;47.886;-3.904;2023-04-25T01:54:15;14.60;;;3.55;;
51006;SDS011;37034;47.886;-3.904;2023-04-25T01:56:43;16.17;;;3.13;;
51006;SDS011;37034;47.886;-3.904;2023-04-25T01:59:14;14.57;;;2.95;;
51006;SDS011;37034;47.886;-3.904;2023-04-25T02:01:40;15.83;;;2.97;;
51006;SDS011;37034;47.886;-3.904;2023-04-25T02:04:06;14.70;;;2.97;;
51006;SDS011;37034;47.886;-3.904;2023-04-25T02:06:31;14.17;;;3.57;;
51006;SDS011;37034;47.886;-3.904;2023-04-25T02:08:57;12.47;;;3.03;;
51006;SDS011;37034;47.886;-3.904;2023-04-25T02:11:22;14.40;;;2.73;;
51006;SDS011;37034;47.886;-3.904;2023-04-25T02:13:48;12.97;;;2.57;;
51006;SDS011;37034;47.886;-3.904;2023-04-25T02:16:14;14.37;;;2.43;;
51006;SDS011;37034;47.886;-3.904;2023-04-25T02:18:39;14.93;;;3.13;;
51006;SDS011;37034;47.886;-3.904;2023-04-25T02:21:05;21.93;;;3.23;;
51006;SDS011;37034;47.886;-3.904;2023-04-25T02:23:31;14.07;;;3.13;;
51006;SDS011;37034;47.886;-3.904;2023-04-25T02:25:56;21.00;;;2.97;;
51006;SDS011;37034;47.886;-3.904;2023-04-25T02:28:23;10.80;;;1.93;;
51006;SDS011;37034;47.886;-3.904;2023-04-25T02:30:50;14.43;;;2.50;;
51006;SDS011;37034;47.886;-3.904;2023-04-25T02:33:15;13.97;;;2.53;;
51006;SDS011;37034;47.886;-3.904;2023-04-25T02:35:42;15.82;;;3.25;;
51006;SDS011;37034;47.886;-3.904;2023-04-25T02:38:07;13.05;;;3.30;;
51006;SDS011;37034;47.886;-3.904;2023-04-25T02:40:33;11.17;;;2.50;;
51006;SDS011;37034;47.886;-3.904;2023-04-25T02:42:59;15.67;;;2.67;;
51006;SDS011;37034;47.886;-3.904;2023-04-25T02:45:24;14.37;;;3.10;;
51006;SDS011;37034;47.886;-3.904;2023-04-25T02:47:50;13.83;;;2.90;;
51006;SDS011;37034;47.886;-3.904;2023-04-25T02:50:15;9.60;;;2.60;;
51006;SDS011;37034;47.886;-3.904;2023-04-25T02:52:43;12.35;;;3.00;;
51006;SDS011;37034;47.886;-3.904;2023-04-25T02:55:09;12.02;;;3.55;;
51006;SDS011;37034;47.886;-3.904;2023-04-25T02:57:35;6.47;;;2.15;;
51006;SDS011;37034;47.886;-3.904;2023-04-25T03:00:01;14.17;;;3.17;;
51006;SDS011;37034;47.886;-3.904;2023-04-25T03:02:29;13.98;;;3.05;;
51006;SDS011;37034;47.886;-3.904;2023-04-25T03:04:55;10.00;;;2.80;;
51006;SDS011;37034;47.886;-3.904;2023-04-25T03:07:21;12.67;;;2.80;;
51006;SDS011;37034;47.886;-3.904;2023-04-25T03:09:46;17.03;;;3.13;;
51006;SDS011;37034;47.886;-3.904;2023-04-25T03:12:12;10.93;;;2.87;;
51006;SDS011;37034;47.886;-3.904;2023-04-25T03:14:37;11.63;;;3.17;;
51006;SDS011;37034;47.886;-3.904;2023-04-25T03:17:03;14.97;;;4.13;;
51006;SDS011;37034;47.886;-3.904;2023-04-25T03:19:29;22.57;;;4.07;;
51006;SDS011;37034;47.886;-3.904;2023-04-25T03:21:55;11.27;;;2.70;;
51006;SDS011;37034;47.886;-3.904;2023-04-25T03:24:21;11.77;;;3.03;;
51006;SDS011;37034;47.886;-3.904;2023-04-25T03:26:47;12.75;;;2.55;;
51006;SDS011;37034;47.886;-3.904;2023-04-25T03:29:12;10.10;;;2.80;;
51006;SDS011;37034;47.886;-3.904;2023-04-25T03:31:38;10.43;;;2.93;;
51006;SDS011;37034;47.886;-3.904;2023-04-25T03:34:04;12.23;;;2.63;;
51006;SDS011;37034;47.886;-3.904;2023-04-25T03:36:29;16.90;;;3.37;;
51006;SDS011;37034;47.886;-3.904;2023-04-25T03:38:55;12.65;;;3.00;;
51006;SDS011;37034;47.886;-3.904;2023-04-25T03:41:21;10.40;;;2.10;;
51006;SDS011;37034;47.886;-3.904;2023-04-25T03:43:46;10.60;;;2.43;;
51006;SDS011;37034;47.886;-3.904;2023-04-25T03:46:12;12.67;;;2.87;;
51006;SDS011;37034;47.886;-3.904;2023-04-25T03:48:38;15.77;;;3.63;;
51006;SDS011;37034;47.886;-3.904;2023-04-25T03:51:03;12.43;;;3.10;;
51006;SDS011;37034;47.886;-3.904;2023-04-25T03:53:29;19.57;;;3.40;;
51006;SDS011;37034;47.886;-3.904;2023-04-25T03:55:55;13.93;;;3.07;;
51006;SDS011;37034;47.886;-3.904;2023-04-25T03:58:21;12.93;;;2.97;;
51006;SDS011;37034;47.886;-3.904;2023-04-25T04:00:48;10.30;;;2.75;;
51006;SDS011;37034;47.886;-3.904;2023-04-25T04:03:13;13.30;;;2.80;;
51006;SDS011;37034;47.886;-3.904;2023-04-25T04:05:39;17.37;;;3.37;;
51006;SDS011;37034;47.886;-3.904;2023-04-25T04:08:05;21.55;;;3.78;;
51006;SDS011;37034;47.886;-3.904;2023-04-25T04:10:32;19.20;;;3.88;;
51006;SDS011;37034;47.886;-3.904;2023-04-25T04:12:57;14.10;;;2.67;;
51006;SDS011;37034;47.886;-3.904;2023-04-25T04:15:23;15.00;;;3.37;;
51006;SDS011;37034;47.886;-3.904;2023-04-25T04:17:49;15.70;;;4.13;;
51006;SDS011;37034;47.886;-3.904;2023-04-25T04:20:14;13.33;;;3.70;;
51006;SDS011;37034;47.886;-3.904;2023-04-25T04:22:40;14.63;;;4.07;;
51006;SDS011;37034;47.886;-3.904;2023-04-25T04:25:06;13.77;;;3.03;;
51006;SDS011;37034;47.886;-3.904;2023-04-25T04:27:32;16.83;;;3.92;;
51006;SDS011;37034;47.886;-3.904;2023-04-25T04:29:57;9.60;;;2.77;;
51006;SDS011;37034;47.886;-3.904;2023-04-25T04:32:23;15.43;;;3.93;;
51006;SDS011;37034;47.886;-3.904;2023-04-25T04:34:50;15.65;;;3.25;;
51006;SDS011;37034;47.886;-3.904;2023-04-25T04:37:17;15.52;;;3.60;;
51006;SDS011;37034;47.886;-3.904;2023-04-25T04:39:43;14.35;;;3.88;;
51006;SDS011;37034;47.886;-3.904;2023-04-25T04:42:09;15.93;;;3.43;;
51006;SDS011;37034;47.886;-3.904;2023-04-25T04:44:36;14.77;;;3.42;;
51006;SDS011;37034;47.886;-3.904;2023-04-25T04:47:03;15.45;;;3.33;;
51006;SDS011;37034;47.886;-3.904;2023-04-25T04:49:31;14.52;;;3.78;;
51006;SDS011;37034;47.886;-3.904;2023-04-25T04:51:57;14.20;;;3.35;;
51006;SDS011;37034;47.886;-3.904;2023-04-25T04:54:24;15.93;;;3.55;;
51006;SDS011;37034;47.886;-3.904;2023-04-25T04:56:50;13.03;;;3.63;;
51006;SDS011;37034;47.886;-3.904;2023-04-25T04:59:17;10.20;;;3.00;;
51006;SDS011;37034;47.886;-3.904;2023-04-25T05:01:43;15.47;;;3.17;;
51006;SDS011;37034;47.886;-3.904;2023-04-25T05:04:08;11.07;;;3.50;;
51006;SDS011;37034;47.886;-3.904;2023-04-25T05:06:34;14.43;;;3.17;;
51006;SDS011;37034;47.886;-3.904;2023-04-25T05:08:59;18.50;;;3.40;;
51006;SDS011;37034;47.886;-3.904;2023-04-25T05:11:25;12.47;;;3.83;;
51006;SDS011;37034;47.886;-3.904;2023-04-25T05:13:51;19.50;;;4.50;;
51006;SDS011;37034;47.886;-3.904;2023-04-25T05:18:43;18.88;;;4.70;;
51006;SDS011;37034;47.886;-3.904;2023-04-25T05:21:09;14.43;;;3.70;;
51006;SDS011;37034;47.886;-3.904;2023-04-25T05:23:35;15.30;;;3.80;;
51006;SDS011;37034;47.886;-3.904;2023-04-25T05:26:00;15.73;;;4.28;;
51006;SDS011;37034;47.886;-3.904;2023-04-25T05:28:26;17.37;;;4.80;;
51006;SDS011;37034;47.886;-3.904;2023-04-25T05:30:52;16.60;;;3.73;;
51006;SDS011;37034;47.886;-3.904;2023-04-25T05:33:17;18.23;;;4.73;;
51006;SDS011;37034;47.886;-3.904;2023-04-25T05:35:43;12.18;;;3.22;;
51006;SDS011;37034;47.886;-3.904;2023-04-25T05:38:09;15.68;;;3.65;;
51006;SDS011;37034;47.886;-3.904;2023-04-25T05:40:36;14.32;;;3.67;;
51006;SDS011;37034;47.886;-3.904;2023-04-25T05:43:02;12.93;;;3.47;;
51006;SDS011;37034;47.886;-3.904;2023-04-25T05:45:28;17.00;;;3.67;;
51006;SDS011;37034;47.886;-3.904;2023-04-25T05:47:53;16.30;;;3.20;;
51006;SDS011;37034;47.886;-3.904;2023-04-25T05:50:19;15.33;;;3.27;;
51006;SDS011;37034;47.886;-3.904;2023-04-25T05:52:45;13.23;;;3.37;;
51006;SDS011;37034;47.886;-3.904;2023-04-25T05:55:10;16.10;;;3.13;;
51006;SDS011;37034;47.886;-3.904;2023-04-25T05:57:36;11.07;;;2.93;;
51006;SDS011;37034;47.886;-3.904;2023-04-25T06:00:02;14.40;;;3.37;;
51006;SDS011;37034;47.886;-3.904;2023-04-25T06:02:29;10.95;;;3.63;;
51006;SDS011;37034;47.886;-3.904;2023-04-25T06:04:54;16.47;;;3.87;;
51006;SDS011;37034;47.886;-3.904;2023-04-25T06:07:20;19.03;;;3.23;;
51006;SDS011;37034;47.886;-3.904;2023-04-25T06:09:46;14.43;;;3.03;;
51006;SDS011;37034;47.886;-3.904;2023-04-25T06:12:11;9.70;;;2.60;;
51006;SDS011;37034;47.886;-3.904;2023-04-25T06:14:37;12.50;;;3.27;;
51006;SDS011;37034;47.886;-3.904;2023-04-25T06:17:03;14.43;;;3.53;;
51006;SDS011;37034;47.886;-3.904;2023-04-25T06:19:33;13.95;;;3.08;;
51006;SDS011;37034;47.886;-3.904;2023-04-25T06:22:00;13.73;;;3.63;;
51006;SDS011;37034;47.886;-3.904;2023-04-25T06:24:26;11.90;;;2.67;;
51006;SDS011;37034;47.886;-3.904;2023-04-25T06:26:52;13.53;;;3.33;;
51006;SDS011;37034;47.886;-3.904;2023-04-25T06:29:18;17.33;;;3.33;;
51006;SDS011;37034;47.886;-3.904;2023-04-25T06:31:44;15.15;;;3.13;;
51006;SDS011;37034;47.886;-3.904;2023-04-25T06:34:09;8.87;;;2.57;;
51006;SDS011;37034;47.886;-3.904;2023-04-25T06:36:35;10.17;;;2.70;;
51006;SDS011;37034;47.886;-3.904;2023-04-25T06:39:01;14.23;;;2.97;;
51006;SDS011;37034;47.886;-3.904;2023-04-25T06:41:27;16.07;;;3.10;;
51006;SDS011;37034;47.886;-3.904;2023-04-25T06:43:52;14.47;;;2.80;;
51006;SDS011;37034;47.886;-3.904;2023-04-25T06:46:18;12.47;;;3.00;;
51006;SDS011;37034;47.886;-3.904;2023-04-25T06:48:44;13.30;;;2.63;;
51006;SDS011;37034;47.886;-3.904;2023-04-25T06:51:09;11.83;;;2.93;;
51006;SDS011;37034;47.886;-3.904;2023-04-25T06:53:35;10.27;;;2.77;;
51006;SDS011;37034;47.886;-3.904;2023-04-25T06:56:01;11.20;;;2.63;;
51006;SDS011;37034;47.886;-3.904;2023-04-25T07:00:53;12.52;;;2.60;;
51006;SDS011;37034;47.886;-3.904;2023-04-25T07:03:19;12.33;;;2.80;;
51006;SDS011;37034;47.886;-3.904;2023-04-25T07:05:45;12.10;;;3.13;;
51006;SDS011;37034;47.886;-3.904;2023-04-25T07:08:11;10.07;;;2.88;;
51006;SDS011;37034;47.886;-3.904;2023-04-25T07:10:37;12.43;;;3.22;;
51006;SDS011;37034;47.886;-3.904;2023-04-25T07:13:02;9.77;;;2.60;;
51006;SDS011;37034;47.886;-3.904;2023-04-25T07:15:28;9.48;;;2.92;;
51006;SDS011;37034;47.886;-3.904;2023-04-25T07:17:54;7.00;;;2.70;;
51006;SDS011;37034;47.886;-3.904;2023-04-25T07:20:19;11.67;;;2.53;;
51006;SDS011;37034;47.886;-3.904;2023-04-25T07:22:45;13.48;;;2.83;;
51006;SDS011;37034;47.886;-3.904;2023-04-25T07:25:11;9.30;;;3.28;;
51006;SDS011;37034;47.886;-3.904;2023-04-25T07:27:37;14.53;;;3.07;;
51006;SDS011;37034;47.886;-3.904;2023-04-25T07:30:03;16.17;;;3.47;;
51006;SDS011;37034;47.886;-3.904;2023-04-25T07:32:29;12.25;;;2.70;;
51006;SDS011;37034;47.886;-3.904;2023-04-25T07:34:55;13.20;;;2.87;;
51006;SDS011;37034;47.886;-3.904;2023-04-25T07:37:21;6.43;;;2.37;;
51006;SDS011;37034;47.886;-3.904;2023-04-25T07:39:46;10.70;;;3.03;;
51006;SDS011;37034;47.886;-3.904;2023-04-25T07:42:12;12.63;;;3.70;;
51006;SDS011;37034;47.886;-3.904;2023-04-25T07:44:38;11.60;;;2.47;;
51006;SDS011;37034;47.886;-3.904;2023-04-25T07:49:32;13.57;;;3.28;;
51006;SDS011;37034;47.886;-3.904;2023-04-25T07:51:59;10.32;;;2.72;;
51006;SDS011;37034;47.886;-3.904;2023-04-25T07:54:25;12.38;;;2.83;;
51006;SDS011;37034;47.886;-3.904;2023-04-25T07:56:51;6.90;;;2.53;;
51006;SDS011;37034;47.886;-3.904;2023-04-25T07:59:17;8.60;;;2.97;;
51006;SDS011;37034;47.886;-3.904;2023-04-25T08:01:42;9.97;;;2.90;;
51006;SDS011;37034;47.886;-3.904;2023-04-25T08:04:08;10.77;;;3.00;;
51006;SDS011;37034;47.886;-3.904;2023-04-25T08:06:34;7.53;;;2.20;;
51006;SDS011;37034;47.886;-3.904;2023-04-25T08:09:00;11.82;;;3.17;;
51006;SDS011;37034;47.886;-3.904;2023-04-25T08:11:25;10.33;;;2.97;;
51006;SDS011;37034;47.886;-3.904;2023-04-25T08:13:51;9.10;;;2.43;;
51006;SDS011;37034;47.886;-3.904;2023-04-25T08:16:16;10.97;;;2.53;;
51006;SDS011;37034;47.886;-3.904;2023-04-25T08:18:42;10.00;;;2.70;;
51006;SDS011;37034;47.886;-3.904;2023-04-25T08:21:08;10.93;;;2.57;;
51006;SDS011;37034;47.886;-3.904;2023-04-25T08:23:36;9.88;;;2.30;;
51006;SDS011;37034;47.886;-3.904;2023-04-25T08:26:02;8.50;;;2.58;;
51006;SDS011;37034;47.886;-3.904;2023-04-25T08:28:29;12.05;;;3.05;;
51006;SDS011;37034;47.886;-3.904;2023-04-25T08:30:55;10.10;;;2.63;;
51006;SDS011;37034;47.886;-3.904;2023-04-25T08:33:21;7.77;;;2.43;;
51006;SDS011;37034;47.886;-3.904;2023-04-25T08:35:46;10.93;;;2.73;;
51006;SDS011;37034;47.886;-3.904;2023-04-25T08:38:12;10.10;;;2.63;;
51006;SDS011;37034;47.886;-3.904;2023-04-25T08:40:38;10.47;;;2.80;;
51006;SDS011;37034;47.886;-3.904;2023-04-25T08:43:06;7.32;;;2.67;;
51006;SDS011;37034;47.886;-3.904;2023-04-25T08:45:38;6.22;;;2.00;;
51006;SDS011;37034;47.886;-3.904;2023-04-25T08:48:08;5.45;;;2.10;;
51006;SDS011;37034;47.886;-3.904;2023-04-25T08:50:40;7.18;;;2.03;;
51006;SDS011;37034;47.886;-3.904;2023-04-25T08:53:09;10.05;;;2.22;;
51006;SDS011;37034;47.886;-3.904;2023-04-25T08:55:43;9.45;;;1.98;;
51006;SDS011;37034;47.886;-3.904;2023-04-25T08:58:10;9.73;;;2.65;;
51006;SDS011;37034;47.886;-3.904;2023-04-25T09:03:03;5.93;;;2.03;;
51006;SDS011;37034;47.886;-3.904;2023-04-25T09:05:29;10.30;;;2.67;;
51006;SDS011;37034;47.886;-3.904;2023-04-25T09:07:56;10.32;;;2.30;;
51006;SDS011;37034;47.886;-3.904;2023-04-25T09:10:23;7.80;;;2.60;;
51006;SDS011;37034;47.886;-3.904;2023-04-25T09:13:01;5.60;;;2.08;;
51006;SDS011;37034;47.886;-3.904;2023-04-25T09:15:48;9.85;;;2.25;;
51006;SDS011;37034;47.886;-3.904;2023-04-25T09:18:29;8.90;;;2.45;;
51006;SDS011;37034;47.886;-3.904;2023-04-25T09:21:10;13.40;;;2.85;;
51006;SDS011;37034;47.886;-3.904;2023-04-25T09:23:40;12.98;;;2.83;;
51006;SDS011;37034;47.886;-3.904;2023-04-25T09:26:08;10.00;;;2.40;;
51006;SDS011;37034;47.886;-3.904;2023-04-25T09:28:34;8.82;;;2.10;;
51006;SDS011;37034;47.886;-3.904;2023-04-25T09:31:00;6.80;;;1.90;;
51006;SDS011;37034;47.886;-3.904;2023-04-25T09:33:33;6.95;;;2.22;;
51006;SDS011;37034;47.886;-3.904;2023-04-25T09:38:32;6.35;;;2.38;;
51006;SDS011;37034;47.886;-3.904;2023-04-25T09:41:09;6.88;;;1.90;;
51006;SDS011;37034;47.886;-3.904;2023-04-25T09:46:02;9.65;;;2.30;;
51006;SDS011;37034;47.886;-3.904;2023-04-25T09:48:28;12.35;;;2.72;;
51006;SDS011;37034;47.886;-3.904;2023-04-25T09:51:10;9.02;;;2.50;;
51006;SDS011;37034;47.886;-3.904;2023-04-25T09:53:39;5.30;;;1.58;;
51006;SDS011;37034;47.886;-3.904;2023-04-25T09:56:07;9.60;;;1.90;;
51006;SDS011;37034;47.886;-3.904;2023-04-25T09:58:34;6.45;;;1.80;;
51006;SDS011;37034;47.886;-3.904;2023-04-25T10:01:01;11.13;;;1.90;;
51006;SDS011;37034;47.886;-3.904;2023-04-25T10:03:33;7.00;;;2.03;;
51006;SDS011;37034;47.886;-3.904;2023-04-25T10:06:00;6.88;;;1.80;;
51006;SDS011;37034;47.886;-3.904;2023-04-25T10:08:32;8.52;;;2.05;;
51006;SDS011;37034;47.886;-3.904;2023-04-25T10:11:00;7.15;;;2.05;;
51006;SDS011;37034;47.886;-3.904;2023-04-25T10:13:28;8.27;;;2.40;;
51006;SDS011;37034;47.886;-3.904;2023-04-25T10:16:01;7.15;;;1.92;;
51006;SDS011;37034;47.886;-3.904;2023-04-25T10:18:31;7.85;;;1.67;;
51006;SDS011;37034;47.886;-3.904;2023-04-25T10:21:01;5.80;;;1.58;;
51006;SDS011;37034;47.886;-3.904;2023-04-25T10:23:30;7.30;;;2.10;;
51006;SDS011;37034;47.886;-3.904;2023-04-25T10:25:56;6.57;;;2.08;;
51006;SDS011;37034;47.886;-3.904;2023-04-25T10:30:59;7.10;;;1.90;;
51006;SDS011;37034;47.886;-3.904;2023-04-25T10:33:38;8.35;;;2.25;;
51006;SDS011;37034;47.886;-3.904;2023-04-25T10:36:49;8.13;;;2.38;;
51006;SDS011;37034;47.886;-3.904;2023-04-25T10:39:27;9.05;;;2.63;;
51006;SDS011;37034;47.886;-3.904;2023-04-25T10:41:56;5.28;;;1.65;;
51006;SDS011;37034;47.886;-3.904;2023-04-25T10:45:09;11.82;;;2.42;;
51006;SDS011;37034;47.886;-3.904;2023-04-25T10:50:15;14.98;;;2.40;;
51006;SDS011;37034;47.886;-3.904;2023-04-25T10:53:21;7.63;;;1.70;;
51006;SDS011;37034;47.886;-3.904;2023-04-25T10:56:05;7.03;;;2.25;;
51006;SDS011;37034;47.886;-3.904;2023-04-25T10:59:05;6.38;;;1.67;;
51006;SDS011;37034;47.886;-3.904;2023-04-25T11:01:54;5.65;;;1.75;;
51006;SDS011;37034;47.886;-3.904;2023-04-25T11:04:40;9.57;;;2.00;;
51006;SDS011;37034;47.886;-3.904;2023-04-25T11:12:39;8.38;;;1.67;;
51006;SDS011;37034;47.886;-3.904;2023-04-25T11:15:06;8.55;;;1.70;;
51006;SDS011;37034;47.886;-3.904;2023-04-25T11:17:33;8.43;;;2.13;;
51006;SDS011;37034;47.886;-3.904;2023-04-25T11:20:02;6.47;;;1.48;;
51006;SDS011;37034;47.886;-3.904;2023-04-25T11:22:32;7.65;;;1.60;;
51006;SDS011;37034;47.886;-3.904;2023-04-25T11:25:03;8.38;;;1.90;;
51006;SDS011;37034;47.886;-3.904;2023-04-25T11:27:30;6.93;;;1.95;;
51006;SDS011;37034;47.886;-3.904;2023-04-25T11:29:56;6.50;;;1.73;;
51006;SDS011;37034;47.886;-3.904;2023-04-25T11:32:21;5.85;;;1.63;;
51006;SDS011;37034;47.886;-3.904;2023-04-25T11:37:14;8.35;;;1.65;;
51006;SDS011;37034;47.886;-3.904;2023-04-25T11:39:47;11.70;;;2.40;;
51006;SDS011;37034;47.886;-3.904;2023-04-25T11:42:12;9.80;;;2.08;;
51006;SDS011;37034;47.886;-3.904;2023-04-25T11:44:38;8.27;;;1.73;;
51006;SDS011;37034;47.886;-3.904;2023-04-25T11:47:08;8.13;;;1.60;;
51006;SDS011;37034;47.886;-3.904;2023-04-25T11:49:38;8.52;;;2.13;;
51006;SDS011;37034;47.886;-3.904;2023-04-25T11:52:05;8.90;;;1.83;;
51006;SDS011;37034;47.886;-3.904;2023-04-25T11:54:34;4.47;;;1.45;;
51006;SDS011;37034;47.886;-3.904;2023-04-25T11:57:01;5.95;;;1.38;;
51006;SDS011;37034;47.886;-3.904;2023-04-25T11:59:26;7.60;;;1.77;;
51006;SDS011;37034;47.886;-3.904;2023-04-25T12:01:52;8.82;;;1.63;;
51006;SDS011;37034;47.886;-3.904;2023-04-25T12:04:22;7.63;;;1.42;;
51006;SDS011;37034;47.886;-3.904;2023-04-25T12:06:50;9.90;;;1.83;;
51006;SDS011;37034;47.886;-3.904;2023-04-25T12:09:20;9.55;;;1.63;;
51006;SDS011;37034;47.886;-3.904;2023-04-25T12:11:53;6.93;;;1.70;;
51006;SDS011;37034;47.886;-3.904;2023-04-25T12:14:21;8.18;;;2.05;;
51006;SDS011;37034;47.886;-3.904;2023-04-25T12:16:49;7.70;;;1.63;;
51006;SDS011;37034;47.886;-3.904;2023-04-25T12:19:16;6.78;;;1.90;;
51006;SDS011;37034;47.886;-3.904;2023-04-25T12:21:43;10.93;;;2.80;;
51006;SDS011;37034;47.886;-3.904;2023-04-25T12:24:13;5.97;;;1.60;;
51006;SDS011;37034;47.886;-3.904;2023-04-25T12:26:47;5.10;;;1.63;;
51006;SDS011;37034;47.886;-3.904;2023-04-25T12:29:18;7.20;;;1.83;;
51006;SDS011;37034;47.886;-3.904;2023-04-25T12:31:45;10.68;;;1.85;;
51006;SDS011;37034;47.886;-3.904;2023-04-25T12:34:11;7.90;;;1.73;;
51006;SDS011;37034;47.886;-3.904;2023-04-25T12:36:37;7.10;;;1.60;;
51006;SDS011;37034;47.886;-3.904;2023-04-25T12:39:03;7.72;;;2.53;;
51006;SDS011;37034;47.886;-3.904;2023-04-25T12:41:30;7.97;;;1.45;;
51006;SDS011;37034;47.886;-3.904;2023-04-25T12:43:55;7.85;;;1.30;;
51006;SDS011;37034;47.886;-3.904;2023-04-25T12:46:21;8.48;;;1.75;;
51006;SDS011;37034;47.886;-3.904;2023-04-25T12:48:50;6.72;;;1.63;;
51006;SDS011;37034;47.886;-3.904;2023-04-25T12:51:16;8.65;;;1.58;;
51006;SDS011;37034;47.886;-3.904;2023-04-25T12:53:41;8.55;;;1.80;;
51006;SDS011;37034;47.886;-3.904;2023-04-25T12:56:07;8.03;;;1.60;;
51006;SDS011;37034;47.886;-3.904;2023-04-25T12:58:33;6.28;;;1.48;;
51006;SDS011;37034;47.886;-3.904;2023-04-25T13:00:59;7.38;;;1.40;;
51006;SDS011;37034;47.886;-3.904;2023-04-25T13:03:25;8.80;;;1.60;;
51006;SDS011;37034;47.886;-3.904;2023-04-25T13:05:51;6.85;;;1.60;;
51006;SDS011;37034;47.886;-3.904;2023-04-25T13:08:18;6.22;;;1.83;;
51006;SDS011;37034;47.886;-3.904;2023-04-25T13:10:44;9.05;;;1.80;;
51006;SDS011;37034;47.886;-3.904;2023-04-25T13:13:09;7.32;;;1.58;;
51006;SDS011;37034;47.886;-3.904;2023-04-25T13:15:35;7.27;;;1.67;;
51006;SDS011;37034;47.886;-3.904;2023-04-25T13:18:02;5.70;;;1.50;;
51006;SDS011;37034;47.886;-3.904;2023-04-25T13:20:29;7.30;;;1.65;;
51006;SDS011;37034;47.886;-3.904;2023-04-25T13:22:56;11.27;;;1.63;;
51006;SDS011;37034;47.886;-3.904;2023-04-25T13:25:22;8.75;;;1.80;;
51006;SDS011;37034;47.886;-3.904;2023-04-25T13:27:48;7.97;;;1.63;;
51006;SDS011;37034;47.886;-3.904;2023-04-25T13:30:14;10.60;;;1.70;;
51006;SDS011;37034;47.886;-3.904;2023-04-25T13:32:39;9.63;;;1.90;;
51006;SDS011;37034;47.886;-3.904;2023-04-25T13:35:06;7.80;;;1.80;;
51006;SDS011;37034;47.886;-3.904;2023-04-25T13:37:34;8.13;;;1.65;;
51006;SDS011;37034;47.886;-3.904;2023-04-25T13:40:01;5.03;;;1.52;;
51006;SDS011;37034;47.886;-3.904;2023-04-25T13:42:29;8.18;;;1.83;;
51006;SDS011;37034;47.886;-3.904;2023-04-25T13:44:55;8.63;;;1.60;;
51006;SDS011;37034;47.886;-3.904;2023-04-25T13:47:21;7.55;;;1.40;;
51006;SDS011;37034;47.886;-3.904;2023-04-25T13:49:48;8.52;;;2.22;;
51006;SDS011;37034;47.886;-3.904;2023-04-25T13:52:14;8.48;;;1.75;;
51006;SDS011;37034;47.886;-3.904;2023-04-25T13:54:40;8.57;;;1.80;;
51006;SDS011;37034;47.886;-3.904;2023-04-25T13:57:06;10.97;;;1.47;;
51006;SDS011;37034;47.886;-3.904;2023-04-25T13:59:32;8.68;;;2.15;;
51006;SDS011;37034;47.886;-3.904;2023-04-25T14:01:59;10.52;;;1.80;;
51006;SDS011;37034;47.886;-3.904;2023-04-25T14:04:25;7.93;;;2.10;;
51006;SDS011;37034;47.886;-3.904;2023-04-25T14:06:51;11.07;;;2.28;;
51006;SDS011;37034;47.886;-3.904;2023-04-25T14:09:17;11.65;;;2.47;;
51006;SDS011;37034;47.886;-3.904;2023-04-25T14:11:45;7.80;;;2.10;;
51006;SDS011;37034;47.886;-3.904;2023-04-25T14:14:11;6.50;;;1.65;;
51006;SDS011;37034;47.886;-3.904;2023-04-25T14:16:38;7.10;;;1.92;;
51006;SDS011;37034;47.886;-3.904;2023-04-25T14:19:04;7.10;;;1.67;;
51006;SDS011;37034;47.886;-3.904;2023-04-25T14:21:29;6.57;;;1.90;;
51006;SDS011;37034;47.886;-3.904;2023-04-25T14:23:57;10.18;;;1.65;;
51006;SDS011;37034;47.886;-3.904;2023-04-25T14:26:23;9.90;;;1.83;;
51006;SDS011;37034;47.886;-3.904;2023-04-25T14:28:49;7.50;;;1.55;;
51006;SDS011;37034;47.886;-3.904;2023-04-25T14:31:17;9.60;;;1.42;;
51006;SDS011;37034;47.886;-3.904;2023-04-25T14:33:43;5.10;;;0.98;;
51006;SDS011;37034;47.886;-3.904;2023-04-25T14:36:10;7.95;;;1.55;;
51006;SDS011;37034;47.886;-3.904;2023-04-25T14:41:03;8.88;;;1.40;;
51006;SDS011;37034;47.886;-3.904;2023-04-25T14:43:28;7.80;;;2.00;;
51006;SDS011;37034;47.886;-3.904;2023-04-25T14:45:54;9.77;;;1.50;;
51006;SDS011;37034;47.886;-3.904;2023-04-25T14:48:20;8.10;;;1.40;;
51006;SDS011;37034;47.886;-3.904;2023-04-25T14:50:46;9.33;;;1.47;;
51006;SDS011;37034;47.886;-3.904;2023-04-25T14:53:11;11.15;;;1.60;;
51006;SDS011;37034;47.886;-3.904;2023-04-25T14:55:38;5.80;;;1.80;;
51006;SDS011;37034;47.886;-3.904;2023-04-25T14:58:03;9.13;;;1.80;;
51006;SDS011;37034;47.886;-3.904;2023-04-25T15:00:30;10.57;;;1.58;;